Hayesville, Ohio
Current Conditions -  °F | °C
As of 3:52 AM on Saturday 01 Nov 2014 (Local Time) from KMFD Reporting Station
Light Rain Light Rain  
Wind Chill: 29°   Ceiling: 800
Heat Index: 38°   Visibility: 10mi
Dew Point: 37°   Wind: 16mph
Humidity: 97%   Direction: 350°N
Pressure: 29.97"   Gusts: 30mph
Location:  40.77°N, 82.26°W
Report Text: KMFD 010752Z AUTO 35014G26KT 10SM -RA OVC008 03/03 A2997 RMK AO2 PK WND 35027/0657 SLP155 P0001 T00330028
Loading
Personal Weather Stations






























Interactive Weather Map
Tropical Storm Tracking
New forecast layout! Learn more

10-Day Weather Forecast

Advertisements
Track Severe Weather on mobile